createdAt,value
2022-09-17T00:00:32.693Z,1.63
2022-09-17T00:03:05.472Z,1.57
2022-09-17T00:05:38.025Z,1.50
2022-09-17T00:08:07.344Z,1.60
2022-09-17T00:11:05.472Z,1.73
2022-09-17T00:13:36.568Z,1.77
2022-09-17T00:16:06.862Z,1.67
2022-09-17T00:18:41.735Z,1.80
2022-09-17T00:21:35.717Z,2.00
2022-09-17T00:24:06.876Z,2.33
2022-09-17T00:29:35.420Z,1.80
2022-09-17T00:32:06.384Z,1.63
2022-09-17T00:34:35.177Z,1.60
2022-09-17T00:37:07.245Z,2.20
2022-09-17T00:39:41.124Z,1.73
2022-09-17T00:42:14.820Z,1.37
2022-09-17T00:44:50.272Z,2.20
2022-09-17T00:47:28.027Z,1.60
2022-09-17T00:49:58.952Z,2.07
2022-09-17T00:52:32.920Z,1.70
2022-09-17T00:55:28.274Z,2.50
2022-09-17T00:58:05.924Z,2.27
2022-09-17T01:00:55.775Z,2.00
2022-09-17T01:03:34.315Z,1.60
2022-09-17T01:06:07.503Z,1.40
2022-09-17T01:09:04.739Z,1.80
2022-09-17T01:11:43.109Z,2.43
2022-09-17T01:14:25.152Z,1.77
2022-09-17T01:16:58.139Z,1.77
2022-09-17T01:19:40.691Z,1.30
2022-09-17T01:22:12.132Z,1.73
2022-09-17T01:25:15.937Z,1.60
2022-09-17T01:27:58.313Z,1.93
2022-09-17T01:30:45.161Z,2.10
2022-09-17T01:33:18.338Z,1.60
2022-09-17T01:35:54.929Z,1.70
2022-09-17T01:38:33.318Z,1.37
2022-09-17T01:41:12.366Z,1.10
2022-09-17T01:43:53.646Z,1.63
2022-09-17T01:46:27.784Z,1.40
2022-09-17T01:49:03.673Z,2.20
2022-09-17T01:51:48.739Z,2.03
2022-09-17T01:54:21.610Z,1.63
2022-09-17T01:56:56.101Z,1.63
2022-09-17T01:59:42.433Z,1.43
2022-09-17T02:02:35.089Z,2.20
2022-09-17T02:05:23.405Z,1.93
2022-09-17T02:08:15.404Z,1.73
2022-09-17T02:10:47.154Z,1.50
2022-09-17T02:13:17.000Z,1.40
2022-09-17T02:16:14.461Z,1.90
2022-09-17T02:19:12.556Z,1.43
2022-09-17T02:21:45.898Z,1.20
2022-09-17T02:24:21.103Z,1.10
2022-09-17T02:26:57.481Z,1.23
2022-09-17T02:29:43.902Z,1.37
2022-09-17T02:32:38.966Z,1.07
2022-09-17T02:35:15.804Z,1.27
2022-09-17T02:37:53.437Z,1.10
2022-09-17T02:40:29.754Z,1.60
2022-09-17T02:43:08.658Z,1.47
2022-09-17T02:45:46.276Z,1.50
2022-09-17T02:48:41.356Z,1.50
2022-09-17T02:51:20.849Z,1.23
2022-09-17T02:53:59.270Z,1.67
2022-09-17T02:56:53.148Z,1.60
2022-09-17T02:59:50.203Z,1.67
2022-09-17T03:02:27.765Z,1.37
2022-09-17T03:05:02.672Z,1.27
2022-09-17T03:08:03.873Z,1.23
2022-09-17T03:10:47.304Z,1.20
2022-09-17T03:13:16.037Z,1.70
2022-09-17T03:16:06.164Z,1.73
2022-09-17T03:18:39.365Z,1.70
2022-09-17T03:21:12.620Z,1.17
2022-09-17T03:23:44.206Z,1.17
2022-09-17T03:26:29.707Z,1.33
2022-09-17T03:29:19.170Z,1.30
2022-09-17T03:32:35.569Z,1.10
2022-09-17T03:35:07.776Z,0.83
2022-09-17T03:37:40.063Z,1.23
2022-09-17T03:40:25.064Z,1.23
2022-09-17T03:42:57.515Z,0.90
2022-09-17T03:45:28.593Z,1.47
2022-09-17T03:48:01.850Z,1.10
2022-09-17T03:50:30.527Z,1.10
2022-09-17T03:53:19.838Z,1.17
2022-09-17T03:55:50.309Z,1.27
2022-09-17T03:58:20.956Z,1.17
2022-09-17T04:00:53.403Z,1.20
2022-09-17T04:03:25.153Z,1.13
2022-09-17T04:05:53.803Z,1.07
2022-09-17T04:08:24.065Z,1.50
2022-09-17T04:10:55.235Z,1.13
2022-09-17T04:13:27.815Z,1.20
2022-09-17T04:16:00.736Z,1.10
2022-09-17T04:18:29.460Z,1.13
2022-09-17T04:20:58.313Z,0.80
2022-09-17T04:23:28.490Z,0.83
2022-09-17T04:26:02.034Z,1.20
2022-09-17T04:28:31.850Z,1.43
2022-09-17T04:31:02.627Z,1.20
2022-09-17T04:33:32.435Z,1.10
2022-09-17T04:36:00.742Z,1.00
2022-09-17T04:38:29.057Z,0.87
2022-09-17T04:40:58.029Z,0.80
2022-09-17T04:43:26.462Z,0.80
2022-09-17T04:45:56.137Z,0.70
2022-09-17T04:48:24.541Z,1.43
2022-09-17T04:50:52.859Z,1.00
2022-09-17T04:53:21.157Z,0.70
2022-09-17T04:55:49.413Z,0.90
2022-09-17T04:58:17.853Z,0.97
2022-09-17T05:00:46.168Z,1.00
2022-09-17T05:03:15.966Z,0.60
2022-09-17T05:05:44.179Z,0.90
2022-09-17T05:08:12.624Z,0.63
2022-09-17T05:10:41.008Z,0.70
2022-09-17T05:13:09.313Z,1.17
2022-09-17T05:15:37.603Z,0.90
2022-09-17T05:18:05.932Z,0.90
2022-09-17T05:20:35.704Z,1.00
2022-09-17T05:23:04.236Z,1.00
2022-09-17T05:25:32.496Z,0.40
2022-09-17T05:28:01.762Z,0.63
2022-09-17T05:30:30.307Z,0.87
2022-09-17T05:33:04.069Z,0.50
2022-09-17T05:35:35.995Z,0.70
2022-09-17T05:38:07.505Z,0.60
2022-09-17T05:40:37.379Z,0.60
2022-09-17T05:43:07.114Z,0.87
2022-09-17T05:45:36.164Z,0.60
2022-09-17T05:48:04.825Z,0.90
2022-09-17T05:50:33.659Z,1.07
2022-09-17T05:53:07.450Z,0.77
2022-09-17T05:55:36.227Z,0.97
2022-09-17T05:58:11.080Z,1.20
2022-09-17T06:00:39.504Z,1.67
2022-09-17T06:03:07.908Z,1.60
2022-09-17T06:05:36.277Z,1.27
2022-09-17T06:08:06.601Z,1.23
2022-09-17T06:10:37.362Z,1.30
2022-09-17T06:13:06.042Z,0.80
2022-09-17T06:15:34.281Z,1.40
2022-09-17T06:18:02.730Z,1.03
2022-09-17T06:20:31.005Z,1.07
2022-09-17T06:22:59.274Z,0.83
2022-09-17T06:25:29.489Z,1.30
2022-09-17T06:27:58.121Z,1.30
2022-09-17T06:30:26.499Z,1.37
2022-09-17T06:32:54.866Z,1.33
2022-09-17T06:35:23.158Z,1.10
2022-09-17T06:37:51.430Z,1.03
2022-09-17T06:40:19.761Z,1.30
2022-09-17T06:42:49.445Z,1.30
2022-09-17T06:45:17.876Z,0.80
2022-09-17T06:47:46.122Z,1.17
2022-09-17T06:50:14.428Z,1.30
2022-09-17T06:52:49.555Z,1.10
2022-09-17T06:55:18.277Z,1.50
2022-09-17T06:57:46.696Z,1.50
2022-09-17T07:00:16.713Z,1.47
2022-09-17T07:02:45.225Z,1.10
2022-09-17T07:05:13.481Z,1.40
2022-09-17T07:07:41.862Z,1.10
2022-09-17T07:10:10.539Z,1.10
2022-09-17T07:12:45.514Z,1.07
2022-09-17T07:15:17.583Z,1.17
2022-09-17T07:17:46.430Z,0.80
2022-09-17T07:20:15.136Z,0.80
2022-09-17T07:22:43.728Z,0.80
2022-09-17T07:25:12.531Z,1.00
2022-09-17T07:27:40.963Z,0.77
2022-09-17T07:30:10.006Z,0.50
2022-09-17T07:32:40.024Z,0.93
2022-09-17T07:35:08.581Z,1.10
2022-09-17T07:37:36.860Z,0.80
2022-09-17T07:40:06.189Z,0.70
2022-09-17T07:42:34.502Z,0.60
2022-09-17T07:45:02.805Z,1.20
2022-09-17T07:47:31.160Z,0.97
2022-09-17T07:50:00.804Z,0.90
2022-09-17T07:52:29.002Z,0.67
2022-09-17T07:54:57.352Z,0.70
2022-09-17T07:57:25.738Z,0.57
2022-09-17T07:59:54.088Z,0.37
2022-09-17T08:02:24.313Z,0.50
2022-09-17T08:04:53.240Z,0.53
2022-09-17T08:07:23.034Z,0.60
2022-09-17T08:09:51.426Z,0.40
2022-09-17T08:12:22.894Z,0.70
2022-09-17T08:14:51.160Z,0.83
2022-09-17T08:17:19.443Z,0.90
2022-09-17T08:19:47.843Z,1.10
2022-09-17T08:22:16.190Z,0.70
2022-09-17T08:24:45.773Z,1.10
2022-09-17T08:27:14.318Z,0.97
2022-09-17T08:29:42.588Z,1.33
2022-09-17T08:32:10.844Z,0.73
2022-09-17T08:34:39.267Z,0.70
2022-09-17T08:37:07.521Z,0.73
2022-09-17T08:39:35.771Z,0.80
2022-09-17T08:42:10.779Z,0.50
2022-09-17T08:44:41.593Z,0.80
2022-09-17T08:47:16.076Z,0.70
2022-09-17T08:49:48.758Z,0.60
2022-09-17T08:52:27.773Z,0.70
2022-09-17T08:55:00.386Z,0.43
2022-09-17T08:57:34.047Z,0.33
2022-09-17T09:00:05.704Z,0.60
2022-09-17T09:03:00.405Z,0.43
2022-09-17T09:05:33.190Z,0.60
2022-09-17T09:08:05.100Z,0.70
2022-09-17T09:10:35.380Z,1.03
2022-09-17T09:13:06.446Z,0.77
2022-09-17T09:15:38.418Z,0.47
2022-09-17T09:18:19.560Z,0.90
2022-09-17T09:20:51.679Z,0.60
2022-09-17T09:23:21.865Z,0.90
2022-09-17T09:25:54.278Z,0.93
2022-09-17T09:28:33.968Z,0.70
2022-09-17T09:31:07.158Z,0.70
2022-09-17T09:33:38.165Z,0.57
2022-09-17T09:36:08.107Z,0.73
2022-09-17T09:38:38.655Z,1.23
2022-09-17T09:41:10.391Z,0.90
2022-09-17T09:44:02.638Z,0.87
2022-09-17T09:46:41.157Z,1.00
2022-09-17T09:49:14.669Z,2.30
2022-09-17T09:51:50.003Z,1.03
2022-09-17T09:54:30.580Z,1.73
2022-09-17T09:56:59.691Z,1.10
2022-09-17T09:59:29.311Z,1.33
2022-09-17T10:01:57.989Z,0.93
2022-09-17T10:04:27.397Z,1.10
2022-09-17T10:06:56.393Z,1.10
2022-09-17T10:09:24.680Z,1.10
2022-09-17T10:12:01.723Z,1.40
2022-09-17T10:14:32.301Z,1.30
2022-09-17T10:17:21.842Z,1.13
2022-09-17T10:20:07.923Z,1.10
2022-09-17T10:22:36.823Z,1.20
2022-09-17T10:25:07.520Z,1.00
2022-09-17T10:27:37.011Z,1.07
2022-09-17T10:30:16.997Z,0.83
2022-09-17T10:32:45.413Z,1.20
2022-09-17T10:35:27.635Z,1.50
2022-09-17T10:37:56.379Z,1.08
2022-09-17T10:40:29.476Z,1.87
2022-09-17T10:43:19.239Z,1.67
2022-09-17T10:45:57.342Z,1.80
2022-09-17T10:48:25.780Z,1.27
2022-09-17T10:50:55.374Z,1.60
2022-09-17T10:53:25.381Z,1.90
2022-09-17T10:55:56.999Z,1.47
2022-09-17T10:58:30.826Z,1.63
2022-09-17T11:01:05.993Z,1.37
2022-09-17T11:03:52.247Z,1.30
2022-09-17T11:06:35.385Z,1.90
2022-09-17T11:09:07.354Z,1.33
2022-09-17T11:11:41.329Z,1.50
2022-09-17T11:14:17.754Z,1.70
2022-09-17T11:16:51.120Z,1.77
2022-09-17T11:19:24.408Z,1.20
2022-09-17T11:21:56.733Z,1.30
2022-09-17T11:24:46.929Z,2.10
2022-09-17T11:27:19.767Z,1.30
2022-09-17T11:30:02.749Z,1.50
2022-09-17T11:32:40.980Z,1.30
2022-09-17T11:35:10.596Z,1.50
2022-09-17T11:37:43.475Z,1.80
2022-09-17T11:40:15.681Z,1.40
2022-09-17T11:42:46.545Z,1.53
2022-09-17T11:45:16.622Z,1.83
2022-09-17T11:47:48.161Z,1.20
2022-09-17T11:50:21.224Z,1.43
2022-09-17T11:52:52.999Z,1.63
2022-09-17T11:55:23.261Z,1.50
2022-09-17T11:57:53.402Z,1.83
2022-09-17T12:00:23.960Z,1.60
2022-09-17T12:02:55.267Z,1.73
2022-09-17T12:05:25.972Z,1.80
2022-09-17T12:07:57.801Z,1.77
2022-09-17T12:10:34.045Z,1.70
2022-09-17T12:13:05.417Z,1.63
2022-09-17T12:15:36.068Z,1.88
2022-09-17T12:18:31.128Z,1.50
2022-09-17T12:21:02.079Z,1.53
2022-09-17T12:23:38.850Z,2.07
2022-09-17T12:26:12.069Z,1.30
2022-09-17T12:28:44.185Z,1.00
2022-09-17T12:31:14.717Z,1.50
2022-09-17T12:33:47.357Z,1.87
2022-09-17T12:36:20.799Z,1.80
2022-09-17T12:39:04.444Z,1.67
2022-09-17T12:41:37.378Z,1.20
2022-09-17T12:44:18.299Z,1.50
2022-09-17T12:46:53.009Z,2.10
2022-09-17T12:49:31.390Z,1.20
2022-09-17T12:52:01.128Z,1.02
2022-09-17T12:54:41.891Z,1.57
2022-09-17T12:57:18.797Z,1.27
2022-09-17T12:59:50.000Z,1.20
2022-09-17T13:02:21.563Z,1.42
2022-09-17T13:05:08.470Z,1.23
2022-09-17T13:07:51.545Z,1.63
2022-09-17T13:10:28.247Z,1.40
2022-09-17T13:12:59.190Z,1.50
2022-09-17T13:15:35.825Z,1.20
2022-09-17T13:18:27.244Z,1.75
2022-09-17T13:21:06.357Z,1.77
2022-09-17T13:23:36.397Z,1.73
2022-09-17T13:26:06.832Z,1.40
2022-09-17T13:28:42.166Z,1.33
2022-09-17T13:31:14.486Z,1.25
2022-09-17T13:33:56.305Z,1.30
2022-09-17T13:36:54.865Z,1.45
2022-09-17T13:39:41.328Z,1.55
2022-09-17T13:42:11.616Z,1.45
2022-09-17T13:44:41.707Z,1.10
2022-09-17T13:47:15.753Z,1.80
2022-09-17T13:49:49.450Z,1.80
2022-09-17T13:52:30.132Z,1.60
2022-09-17T13:55:00.052Z,1.35
2022-09-17T13:57:28.877Z,1.27
2022-09-17T13:59:58.550Z,2.08
2022-09-17T14:02:37.259Z,1.83
2022-09-17T14:05:32.746Z,1.33
2022-09-17T14:08:16.047Z,1.42
2022-09-17T14:10:47.550Z,1.70
2022-09-17T14:13:36.453Z,1.50
2022-09-17T14:16:05.389Z,1.27
2022-09-17T14:18:37.978Z,1.42
2022-09-17T14:21:15.574Z,1.35
2022-09-17T14:23:45.172Z,1.38
2022-09-17T14:26:18.601Z,1.10
2022-09-17T14:28:51.420Z,1.20
2022-09-17T14:31:20.549Z,1.25
2022-09-17T14:33:49.568Z,1.55
2022-09-17T14:36:20.004Z,0.80
2022-09-17T14:38:49.490Z,0.70
2022-09-17T14:41:22.304Z,1.17
2022-09-17T14:43:51.977Z,1.48
2022-09-17T14:46:22.082Z,1.40
2022-09-17T14:48:50.537Z,1.30
2022-09-17T14:51:29.797Z,1.30
2022-09-17T14:54:18.201Z,1.45
2022-09-17T14:56:53.502Z,1.20
2022-09-17T14:59:24.651Z,1.45
2022-09-17T15:01:53.381Z,1.63
2022-09-17T15:04:26.558Z,1.17
2022-09-17T15:06:55.271Z,1.35
2022-09-17T15:09:25.562Z,1.27
2022-09-17T15:11:56.813Z,1.92
2022-09-17T15:14:29.185Z,1.38
2022-09-17T15:16:59.074Z,1.10
2022-09-17T15:19:31.323Z,1.45
2022-09-17T15:21:59.993Z,1.40
2022-09-17T15:24:35.771Z,1.10
2022-09-17T15:27:07.468Z,1.00
2022-09-17T15:29:36.662Z,1.10
2022-09-17T15:32:06.487Z,1.60
2022-09-17T15:34:34.918Z,1.80
2022-09-17T15:37:06.912Z,1.20
2022-09-17T15:39:40.612Z,1.43
2022-09-17T15:42:19.160Z,1.60
2022-09-17T15:44:47.487Z,1.47
2022-09-17T15:47:34.590Z,1.67
2022-09-17T15:50:08.915Z,0.98
2022-09-17T15:52:37.284Z,0.90
2022-09-17T15:55:05.809Z,0.60
2022-09-17T15:57:35.481Z,1.10
2022-09-17T16:00:14.888Z,0.90
2022-09-17T16:02:43.552Z,1.30
2022-09-17T16:05:35.550Z,1.17
2022-09-17T16:08:19.179Z,2.07
2022-09-17T16:10:47.643Z,1.27
2022-09-17T16:13:17.400Z,1.30
2022-09-17T16:15:45.969Z,1.10
2022-09-17T16:18:16.945Z,1.10
2022-09-17T16:20:45.226Z,1.30
2022-09-17T16:23:13.656Z,1.13
2022-09-17T16:25:43.014Z,1.13
2022-09-17T16:28:13.851Z,1.10
2022-09-17T16:30:46.220Z,1.10
2022-09-17T16:33:15.726Z,1.40
2022-09-17T16:35:44.419Z,1.23
2022-09-17T16:38:12.922Z,1.60
2022-09-17T16:40:42.312Z,1.33
2022-09-17T16:43:11.118Z,1.17
2022-09-17T16:45:39.721Z,1.47
2022-09-17T16:48:09.528Z,0.97
2022-09-17T16:50:37.823Z,0.90
2022-09-17T16:53:06.091Z,1.30
2022-09-17T16:55:34.325Z,1.00
2022-09-17T16:58:03.006Z,1.00
2022-09-17T17:00:31.467Z,0.70
2022-09-17T17:02:59.965Z,1.47
2022-09-17T17:05:29.720Z,1.03
2022-09-17T17:08:00.420Z,0.80
2022-09-17T17:10:31.614Z,0.80
2022-09-17T17:13:00.015Z,1.10
2022-09-17T17:15:30.859Z,1.03
2022-09-17T17:17:59.227Z,2.07
2022-09-17T17:20:27.666Z,1.50
2022-09-17T17:22:57.823Z,1.57
2022-09-17T17:25:27.153Z,2.03
2022-09-17T17:27:55.554Z,1.23
2022-09-17T17:30:23.999Z,1.47
2022-09-17T17:32:53.111Z,1.40
2022-09-17T17:35:21.740Z,1.20
2022-09-17T17:37:50.356Z,1.30
2022-09-17T17:40:20.112Z,1.10
2022-09-17T17:42:53.316Z,1.00
2022-09-17T17:45:21.635Z,1.10
2022-09-17T17:47:49.977Z,1.13
2022-09-17T17:50:20.807Z,1.20
2022-09-17T17:52:49.749Z,1.20
2022-09-17T17:55:18.390Z,1.10
2022-09-17T17:57:48.127Z,0.70
2022-09-17T18:00:18.365Z,0.90
2022-09-17T18:02:46.959Z,0.90
2022-09-17T18:05:15.371Z,1.10
2022-09-17T18:07:43.647Z,1.03
2022-09-17T18:10:13.039Z,0.90
2022-09-17T18:12:41.632Z,0.90
2022-09-17T18:15:11.792Z,1.40
2022-09-17T18:17:40.101Z,1.10
2022-09-17T18:20:13.985Z,1.10
2022-09-17T18:22:42.467Z,1.23
2022-09-17T18:25:11.057Z,1.50
2022-09-17T18:27:39.785Z,1.10
2022-09-17T18:30:12.258Z,1.13
2022-09-17T18:32:41.046Z,1.30
2022-09-17T18:35:11.040Z,1.07
2022-09-17T18:37:39.412Z,1.40
2022-09-17T18:40:09.569Z,1.60
2022-09-17T18:42:38.373Z,1.70
2022-09-17T18:45:07.500Z,1.87
2022-09-17T18:47:37.184Z,1.70
2022-09-17T18:50:07.059Z,1.30
2022-09-17T18:52:36.638Z,1.47
2022-09-17T18:55:05.182Z,1.10
2022-09-17T18:57:33.619Z,1.27
2022-09-17T19:00:02.194Z,1.50
2022-09-17T19:02:30.689Z,1.10
2022-09-17T19:05:00.530Z,0.80
2022-09-17T19:07:30.077Z,1.00
2022-09-17T19:10:01.746Z,1.30
2022-09-17T19:12:32.550Z,1.53
2022-09-17T19:15:02.702Z,1.40
2022-09-17T19:17:32.104Z,1.70
2022-09-17T19:20:01.954Z,1.30
2022-09-17T19:22:31.431Z,1.13
2022-09-17T19:25:00.030Z,1.80
2022-09-17T19:27:28.647Z,1.37
2022-09-17T19:29:57.813Z,1.27
2022-09-17T19:32:28.802Z,1.60
2022-09-17T19:34:57.317Z,1.27
2022-09-17T19:37:30.468Z,1.43
2022-09-17T19:40:18.992Z,1.63
2022-09-17T19:42:56.048Z,0.80
2022-09-17T19:45:24.855Z,1.27
2022-09-17T19:47:56.707Z,1.87
2022-09-17T19:50:26.407Z,1.43
2022-09-17T19:53:16.248Z,1.87
2022-09-17T19:55:45.030Z,1.60
2022-09-17T19:58:13.519Z,1.40
2022-09-17T20:00:42.434Z,1.93
2022-09-17T20:03:10.938Z,1.40
2022-09-17T20:05:39.436Z,1.50
2022-09-17T20:08:09.201Z,1.87
2022-09-17T20:10:38.575Z,1.53
2022-09-17T20:13:13.076Z,1.37
2022-09-17T20:15:41.414Z,1.30
2022-09-17T20:18:09.860Z,1.50
2022-09-17T20:20:39.873Z,1.30
2022-09-17T20:23:09.543Z,1.03
2022-09-17T20:25:38.881Z,1.13
2022-09-17T20:28:07.556Z,1.27
2022-09-17T20:30:37.137Z,1.50
2022-09-17T20:33:09.635Z,1.77
2022-09-17T20:35:39.191Z,1.57
2022-09-17T20:41:05.305Z,1.10
2022-09-17T20:43:37.206Z,0.93
2022-09-17T20:46:07.357Z,1.80
2022-09-17T20:48:38.696Z,1.20
2022-09-17T20:51:10.005Z,1.33
2022-09-17T20:53:40.510Z,1.03
2022-09-17T20:56:09.854Z,1.60
2022-09-17T20:58:39.809Z,1.23
2022-09-17T21:01:09.508Z,1.40
2022-09-17T21:03:38.636Z,1.03
2022-09-17T21:06:08.951Z,1.00
2022-09-17T21:08:41.207Z,1.20
2022-09-17T21:11:11.178Z,0.90
2022-09-17T21:13:41.855Z,1.10
2022-09-17T21:16:11.308Z,1.00
2022-09-17T21:18:40.727Z,0.97
2022-09-17T21:21:10.096Z,0.93
2022-09-17T21:23:38.990Z,1.43
2022-09-17T21:26:08.505Z,1.43
2022-09-17T21:28:38.820Z,1.50
2022-09-17T21:31:09.213Z,1.53
2022-09-17T21:33:38.240Z,1.70
2022-09-17T21:36:10.355Z,1.42
2022-09-17T21:38:39.136Z,1.47
2022-09-17T21:41:10.157Z,1.50
2022-09-17T21:43:40.407Z,1.63
2022-09-17T21:46:09.958Z,1.00
2022-09-17T21:48:40.903Z,1.10
2022-09-17T21:51:10.107Z,0.90
2022-09-17T21:53:40.242Z,0.93
2022-09-17T21:56:09.298Z,1.10
2022-09-17T21:58:40.177Z,1.30
2022-09-17T22:01:12.452Z,0.83
2022-09-17T22:03:49.793Z,0.90
2022-09-17T22:06:19.231Z,0.80
2022-09-17T22:08:49.140Z,0.50
2022-09-17T22:11:18.320Z,0.43
2022-09-17T22:13:57.177Z,0.50
2022-09-17T22:16:30.988Z,0.87
2022-09-17T22:18:59.883Z,0.80
2022-09-17T22:21:31.117Z,0.80
2022-09-17T22:24:00.728Z,0.97
2022-09-17T22:26:32.457Z,0.63
2022-09-17T22:29:03.282Z,0.53
2022-09-17T22:31:33.344Z,0.97
2022-09-17T22:34:02.208Z,1.03
2022-09-17T22:36:34.175Z,0.90
2022-09-17T22:39:02.575Z,0.70
2022-09-17T22:41:34.950Z,1.00
2022-09-17T22:44:08.236Z,0.77
2022-09-17T22:46:53.112Z,0.90
2022-09-17T22:49:21.667Z,1.00
2022-09-17T22:51:50.083Z,1.20
2022-09-17T22:54:22.916Z,0.97
2022-09-17T22:56:53.737Z,1.00
2022-09-17T22:59:23.470Z,0.80
2022-09-17T23:01:53.214Z,0.87
2022-09-17T23:04:23.326Z,0.60
2022-09-17T23:06:53.092Z,0.73
2022-09-17T23:09:21.912Z,1.10
2022-09-17T23:11:51.584Z,0.80
2022-09-17T23:14:19.987Z,1.23
2022-09-17T23:16:51.222Z,0.80
2022-09-17T23:19:23.414Z,0.67
2022-09-17T23:21:52.802Z,1.03
2022-09-17T23:24:23.305Z,0.83
2022-09-17T23:26:52.191Z,1.20
2022-09-17T23:29:22.678Z,1.00
2022-09-17T23:31:52.766Z,1.00
2022-09-17T23:34:22.972Z,1.13
2022-09-17T23:36:51.293Z,0.83
2022-09-17T23:39:20.023Z,1.57
2022-09-17T23:41:52.293Z,1.10
2022-09-17T23:44:20.804Z,1.20
2022-09-17T23:46:49.437Z,1.20
2022-09-17T23:49:39.328Z,1.10
2022-09-17T23:52:08.795Z,1.10
2022-09-17T23:54:37.971Z,1.73
2022-09-17T23:57:07.460Z,1.50
2022-09-17T23:59:35.787Z,1.60
